Time;durP1;ratioP1;P1;durP2;ratioP2;P2;SDS_P1;SDS_P2;PMS_P1;PMS_P2;Temp;Humidity;BMP_temperature;BMP_pressure;BME280_temperature;BME280_humidity;BME280_pressure;Samples;Min_cycle;Max_cycle;Signal;HPM_P1;HPM_P2
2023/03/27 00:02:22;;;;;;;4.23;2.30;;;8.80;93.70;;;;;;928180;149;27432;-74
2023/03/27 00:04:49;;;;;;;7.70;2.40;;;8.80;93.50;;;;;;925528;149;27439;-74
2023/03/27 00:07:15;;;;;;;5.80;2.50;;;8.80;93.30;;;;;;929401;149;27397;-74
2023/03/27 00:09:43;;;;;;;5.70;2.37;;;8.80;93.30;;;;;;925993;149;27448;-74
2023/03/27 00:12:09;;;;;;;5.53;2.60;;;8.70;93.10;;;;;;928085;149;27352;-74
2023/03/27 00:14:35;;;;;;;3.30;2.07;;;8.70;92.90;;;;;;930512;149;27373;-74
2023/03/27 00:17:03;;;;;;;8.40;2.77;;;8.60;92.80;;;;;;928975;149;27374;-74
2023/03/27 00:19:28;;;;;;;5.27;2.67;;;8.60;92.70;;;;;;924351;149;27339;-74
2023/03/27 00:21:55;;;;;;;4.60;2.30;;;8.60;92.50;;;;;;926559;149;27323;-74
2023/03/27 00:24:22;;;;;;;7.07;2.60;;;8.50;92.30;;;;;;928497;149;27323;-74
2023/03/27 00:26:48;;;;;;;6.37;2.40;;;8.50;92.20;;;;;;926658;149;27411;-74
2023/03/27 00:29:15;;;;;;;6.47;2.20;;;8.40;92.10;;;;;;928097;149;27393;-74
2023/03/27 00:31:41;;;;;;;5.27;2.23;;;8.30;92.20;;;;;;925562;149;27867;-74
2023/03/27 00:34:08;;;;;;;4.97;2.50;;;8.30;92.30;;;;;;927810;149;27333;-73
2023/03/27 00:36:35;;;;;;;4.03;2.00;;;8.20;92.30;;;;;;927062;149;27325;-74
2023/03/27 00:39:01;;;;;;;7.73;3.30;;;8.20;92.10;;;;;;927481;149;27374;-74
2023/03/27 00:41:28;;;;;;;4.40;2.37;;;8.10;91.80;;;;;;927773;149;27447;-74
2023/03/27 00:43:57;;;;;;;6.97;2.70;;;8.00;91.60;;;;;;927098;149;27337;-74
2023/03/27 00:46:24;;;;;;;4.57;1.97;;;7.90;91.50;;;;;;928378;149;27315;-75
2023/03/27 00:48:50;;;;;;;8.53;2.63;;;7.80;91.60;;;;;;921194;149;27373;-75
2023/03/27 00:51:17;;;;;;;8.47;2.80;;;7.80;91.80;;;;;;927819;149;27387;-74
2023/03/27 00:53:43;;;;;;;3.63;2.03;;;7.70;92.00;;;;;;925327;149;27343;-74
2023/03/27 00:56:10;;;;;;;7.37;2.33;;;7.60;92.10;;;;;;928029;149;27367;-74
2023/03/27 00:58:37;;;;;;;9.17;3.07;;;7.60;92.40;;;;;;928982;149;27461;-74
2023/03/27 01:01:03;;;;;;;5.87;2.47;;;7.60;92.50;;;;;;927691;149;27367;-74
2023/03/27 01:03:30;;;;;;;7.27;2.80;;;7.50;92.60;;;;;;925358;149;27352;-74
2023/03/27 01:05:56;;;;;;;5.40;2.30;;;7.50;92.70;;;;;;925084;149;27372;-74
2023/03/27 01:08:23;;;;;;;10.33;3.17;;;7.50;92.70;;;;;;930643;148;27346;-74
2023/03/27 01:10:52;;;;;;;4.77;2.10;;;7.50;92.60;;;;;;939490;148;27718;-74
2023/03/27 01:13:34;;;;;;;8.00;2.53;;;7.50;92.50;;;;;;905714;148;27243;-73
2023/03/27 01:16:06;;;;;;;6.17;2.33;;;7.50;92.40;;;;;;939655;148;27369;-75
2023/03/27 01:18:35;;;;;;;8.30;2.40;;;7.50;92.10;;;;;;940155;148;27458;-74
2023/03/27 01:21:07;;;;;;;3.03;1.87;;;7.50;92.10;;;;;;939608;148;27946;-74
2023/03/27 01:23:52;;;;;;;5.87;2.03;;;7.50;92.00;;;;;;940589;148;27366;-74
2023/03/27 01:26:31;;;;;;;3.10;1.93;;;7.50;91.90;;;;;;940896;148;27330;-74
2023/03/27 01:29:15;;;;;;;6.03;1.97;;;7.40;91.80;;;;;;940912;148;27400;-74
2023/03/27 01:31:54;;;;;;;6.00;2.07;;;7.40;91.60;;;;;;932264;148;27293;-74
2023/03/27 01:34:29;;;;;;;4.77;2.00;;;7.40;91.30;;;;;;940068;148;27340;-74
2023/03/27 01:37:07;;;;;;;6.27;1.73;;;7.30;90.90;;;;;;940700;148;27874;-74
2023/03/27 01:39:55;;;;;;;2.80;1.60;;;7.30;90.70;;;;;;917466;153;27316;-74
2023/03/27 01:42:22;;;;;;;3.20;1.53;;;7.30;90.40;;;;;;939480;148;27305;-74
2023/03/27 01:45:09;;;;;;;2.80;1.83;;;7.20;90.20;;;;;;939007;148;27322;-74
2023/03/27 01:47:54;;;;;;;6.23;2.03;;;7.20;90.10;;;;;;938707;148;27424;-74
2023/03/27 01:50:32;;;;;;;5.00;1.97;;;7.10;90.00;;;;;;940138;148;27487;-74
2023/03/27 01:53:00;;;;;;;6.00;2.20;;;7.10;89.60;;;;;;939666;148;27346;-74
2023/03/27 01:55:25;;;;;;;5.47;2.10;;;7.00;89.80;;;;;;939134;148;27345;-75
2023/03/27 01:57:59;;;;;;;5.17;2.00;;;7.00;89.80;;;;;;938698;148;27930;-74
2023/03/27 02:00:22;;;;;;;2.80;1.80;;;7.00;89.90;;;;;;937897;148;27356;-74
2023/03/27 02:02:54;;;;;;;6.67;1.83;;;6.90;89.70;;;;;;939346;148;27391;-74
2023/03/27 02:05:23;;;;;;;11.70;2.77;;;6.90;89.50;;;;;;937214;148;27282;-74
2023/03/27 02:07:50;;;;;;;6.20;1.80;;;6.90;89.20;;;;;;939952;148;27356;-78
2023/03/27 02:10:16;;;;;;;5.87;1.70;;;6.90;88.70;;;;;;937382;149;27475;-80
2023/03/27 02:12:57;;;;;;;6.93;1.63;;;6.80;88.10;;;;;;934436;148;27328;-80
2023/03/27 02:15:25;;;;;;;3.00;1.70;;;6.80;87.60;;;;;;934193;148;27441;-81
2023/03/27 02:17:51;;;;;;;2.43;1.60;;;6.70;87.20;;;;;;931994;148;27394;-81
2023/03/27 02:20:18;;;;;;;4.70;1.70;;;6.60;86.80;;;;;;931547;148;28142;-81
2023/03/27 02:22:44;;;;;;;3.20;1.87;;;6.60;86.70;;;;;;932252;148;27314;-81
2023/03/27 02:25:31;;;;;;;2.67;1.67;;;6.50;86.70;;;;;;932231;148;27412;-81
2023/03/27 02:28:21;;;;;;;5.50;1.77;;;6.40;86.60;;;;;;922262;148;27447;-81
2023/03/27 02:31:05;;;;;;;3.50;1.63;;;6.40;86.60;;;;;;932879;148;27455;-83
2023/03/27 02:33:43;;;;;;;5.87;1.97;;;6.30;86.70;;;;;;932571;148;27379;-82
2023/03/27 02:36:27;;;;;;;5.47;1.97;;;6.20;86.80;;;;;;933743;148;27448;-82
2023/03/27 02:39:03;;;;;;;1.97;1.60;;;6.20;87.00;;;;;;931898;148;27284;-82
2023/03/27 02:41:32;;;;;;;2.90;1.90;;;6.10;87.10;;;;;;933222;148;27332;-76
2023/03/27 02:44:14;;;;;;;6.40;1.97;;;6.10;87.20;;;;;;932174;148;27502;-76
2023/03/27 02:46:46;;;;;;;6.63;1.77;;;6.00;87.30;;;;;;931847;148;27343;-76
2023/03/27 02:49:13;;;;;;;4.10;1.93;;;6.00;87.50;;;;;;931068;148;27310;-76
2023/03/27 02:51:40;;;;;;;3.67;1.47;;;6.00;87.60;;;;;;931346;148;27893;-76
2023/03/27 02:54:06;;;;;;;3.77;1.60;;;6.00;87.70;;;;;;932537;148;27357;-76
2023/03/27 02:56:33;;;;;;;6.63;2.00;;;6.00;87.80;;;;;;933225;148;27354;-76
2023/03/27 02:58:59;;;;;;;6.13;1.87;;;5.90;87.60;;;;;;931983;148;27382;-75
2023/03/27 03:01:26;;;;;;;4.63;2.43;;;5.90;87.50;;;;;;931946;148;27352;-76
2023/03/27 03:03:58;;;;;;;6.23;1.50;;;5.90;87.50;;;;;;915452;148;27392;-76
2023/03/27 03:06:31;;;;;;;3.73;1.73;;;5.90;87.50;;;;;;935830;149;27901;-76
2023/03/27 03:09:06;;;;;;;8.37;1.83;;;5.90;87.60;;;;;;935702;148;27345;-76
2023/03/27 03:11:33;;;;;;;3.80;1.77;;;5.80;87.40;;;;;;927511;150;27356;-76
2023/03/27 03:14:00;;;;;;;3.90;1.70;;;5.80;87.40;;;;;;925553;150;27465;-76
2023/03/27 03:16:26;;;;;;;4.00;1.87;;;5.80;87.50;;;;;;925711;150;27472;-76
2023/03/27 03:18:53;;;;;;;6.30;1.87;;;5.80;87.40;;;;;;928510;150;27400;-76
2023/03/27 03:21:20;;;;;;;3.63;1.27;;;5.70;87.40;;;;;;925545;150;27442;-76
2023/03/27 03:23:46;;;;;;;3.07;1.40;;;5.70;87.10;;;;;;923347;150;27458;-76
2023/03/27 03:26:13;;;;;;;4.57;1.47;;;5.70;86.90;;;;;;928044;150;27476;-76
2023/03/27 03:28:39;;;;;;;2.97;1.40;;;5.60;86.70;;;;;;926175;150;27400;-76
2023/03/27 03:31:09;;;;;;;5.43;1.70;;;5.60;86.60;;;;;;925400;150;27495;-76
2023/03/27 03:33:33;;;;;;;3.00;1.33;;;5.60;86.60;;;;;;926754;150;27361;-76
2023/03/27 03:35:59;;;;;;;2.50;1.63;;;5.50;86.40;;;;;;926909;150;28588;-76
2023/03/27 03:38:26;;;;;;;5.53;1.70;;;5.50;86.40;;;;;;923692;150;27451;-76
2023/03/27 03:40:52;;;;;;;3.70;1.30;;;5.40;86.30;;;;;;925701;150;27301;-76
2023/03/27 03:43:19;;;;;;;2.47;1.30;;;5.40;86.40;;;;;;925101;150;27276;-76
2023/03/27 03:45:45;;;;;;;1.90;1.70;;;5.40;86.30;;;;;;926204;150;27357;-76
2023/03/27 03:48:12;;;;;;;2.57;1.60;;;5.30;86.10;;;;;;924968;150;27407;-75
2023/03/27 03:50:38;;;;;;;2.67;1.50;;;5.30;86.20;;;;;;925277;150;27743;-76
2023/03/27 03:53:05;;;;;;;3.37;1.70;;;5.30;86.20;;;;;;926115;150;27262;-75
2023/03/27 03:55:32;;;;;;;4.57;1.43;;;5.20;86.20;;;;;;924669;150;27339;-76
2023/03/27 03:57:58;;;;;;;8.30;1.80;;;5.20;86.30;;;;;;925919;150;27352;-76
2023/03/27 04:00:25;;;;;;;3.90;1.70;;;5.20;86.30;;;;;;926471;150;27456;-76
2023/03/27 04:02:52;;;;;;;3.73;1.90;;;5.10;86.30;;;;;;926653;150;27329;-76
2023/03/27 04:05:18;;;;;;;2.53;1.27;;;5.10;86.30;;;;;;925904;150;27429;-76
2023/03/27 04:07:45;;;;;;;5.80;1.60;;;5.00;86.30;;;;;;926480;150;27440;-76
2023/03/27 04:10:14;;;;;;;2.73;1.33;;;5.00;86.30;;;;;;929616;148;27451;-76
2023/03/27 04:12:38;;;;;;;4.13;1.90;;;5.00;86.30;;;;;;940822;148;27487;-75
2023/03/27 04:15:04;;;;;;;4.97;1.70;;;4.90;86.40;;;;;;941101;148;27410;-75
2023/03/27 04:17:32;;;;;;;4.90;2.10;;;4.90;86.40;;;;;;940009;148;27321;-76
2023/03/27 04:19:57;;;;;;;4.30;1.60;;;4.90;86.40;;;;;;937979;148;27340;-76
2023/03/27 04:22:25;;;;;;;2.63;1.80;;;4.80;86.50;;;;;;939217;148;27495;-76
2023/03/27 04:24:52;;;;;;;3.43;1.63;;;4.80;86.40;;;;;;940802;148;27416;-76
2023/03/27 04:27:17;;;;;;;4.33;1.70;;;4.80;86.40;;;;;;940381;148;27454;-76
2023/03/27 04:29:46;;;;;;;6.77;2.30;;;4.70;86.40;;;;;;941100;148;27273;-76
2023/03/27 04:32:10;;;;;;;2.23;1.60;;;4.70;86.50;;;;;;939340;148;27369;-76
2023/03/27 04:34:39;;;;;;;4.13;1.83;;;4.60;86.50;;;;;;939003;148;27470;-76
2023/03/27 04:37:04;;;;;;;7.00;2.30;;;4.60;86.60;;;;;;942340;148;27351;-76
2023/03/27 04:39:34;;;;;;;4.07;1.87;;;4.60;86.70;;;;;;938848;148;27264;-76
2023/03/27 04:41:57;;;;;;;2.60;1.80;;;4.60;86.80;;;;;;938841;148;27347;-76
2023/03/27 04:44:23;;;;;;;6.13;1.93;;;4.60;86.80;;;;;;940070;148;27414;-76
2023/03/27 04:46:50;;;;;;;3.63;1.70;;;4.50;86.80;;;;;;938348;148;27479;-76
2023/03/27 04:49:17;;;;;;;3.37;1.80;;;4.50;86.80;;;;;;938733;148;27342;-76
2023/03/27 04:51:43;;;;;;;8.77;3.93;;;4.50;87.00;;;;;;938149;148;27321;-75
2023/03/27 04:54:10;;;;;;;4.60;1.80;;;4.50;86.70;;;;;;940582;148;27518;-75
2023/03/27 04:56:36;;;;;;;4.80;2.07;;;4.40;86.50;;;;;;940177;148;27487;-75
2023/03/27 04:59:03;;;;;;;8.53;1.80;;;4.40;86.60;;;;;;938909;148;27325;-75
2023/03/27 05:01:29;;;;;;;4.03;1.80;;;4.40;86.70;;;;;;940558;148;27307;-75
2023/03/27 05:03:56;;;;;;;2.40;1.57;;;4.30;86.80;;;;;;939471;148;27315;-75
2023/03/27 05:06:23;;;;;;;5.40;1.60;;;4.30;86.70;;;;;;937009;148;27497;-75
2023/03/27 05:08:49;;;;;;;3.23;1.47;;;4.30;86.80;;;;;;939928;148;27417;-75
2023/03/27 05:11:16;;;;;;;3.23;1.90;;;4.30;86.80;;;;;;941679;148;27458;-75
2023/03/27 05:13:42;;;;;;;3.13;1.37;;;4.20;86.80;;;;;;939407;148;27391;-75
2023/03/27 05:16:09;;;;;;;6.10;2.03;;;4.20;86.80;;;;;;939175;148;27467;-75
2023/03/27 05:18:37;;;;;;;3.13;1.60;;;4.10;86.90;;;;;;941600;148;27465;-75
2023/03/27 05:21:02;;;;;;;2.33;1.50;;;4.10;87.00;;;;;;938019;148;27353;-75
2023/03/27 05:23:29;;;;;;;2.00;1.50;;;4.10;87.10;;;;;;938653;148;27452;-75
2023/03/27 05:25:55;;;;;;;4.80;1.57;;;4.10;87.20;;;;;;940319;148;27402;-75
2023/03/27 05:28:22;;;;;;;5.53;1.73;;;4.10;87.30;;;;;;940522;148;27483;-75
2023/03/27 05:30:48;;;;;;;2.33;1.47;;;4.00;87.60;;;;;;939774;148;27357;-75
2023/03/27 05:33:15;;;;;;;4.87;1.70;;;4.10;88.40;;;;;;937829;148;27282;-75
2023/03/27 05:35:45;;;;;;;2.43;1.40;;;4.10;89.30;;;;;;939327;148;27346;-75
2023/03/27 05:38:08;;;;;;;3.70;1.90;;;4.20;90.30;;;;;;938556;148;27385;-75
2023/03/27 05:40:35;;;;;;;2.37;1.10;;;4.30;90.90;;;;;;942778;148;27360;-75
2023/03/27 05:43:01;;;;;;;2.20;1.50;;;4.60;91.70;;;;;;940104;148;27395;-75
2023/03/27 05:45:28;;;;;;;2.50;1.30;;;4.90;92.40;;;;;;939124;148;27410;-75
2023/03/27 05:47:54;;;;;;;3.87;1.53;;;5.20;92.80;;;;;;939744;148;27333;-75
2023/03/27 05:50:21;;;;;;;3.67;1.97;;;5.60;93.30;;;;;;940422;148;27425;-75
2023/03/27 05:52:48;;;;;;;4.23;1.67;;;6.00;93.80;;;;;;940716;148;27388;-76
2023/03/27 05:55:14;;;;;;;6.07;1.93;;;6.50;94.20;;;;;;940957;148;27338;-75
2023/03/27 05:57:41;;;;;;;5.83;1.60;;;7.00;94.40;;;;;;940164;148;27333;-75
2023/03/27 06:00:10;;;;;;;5.23;1.40;;;7.60;94.30;;;;;;940719;148;27365;-75
2023/03/27 06:02:37;;;;;;;2.50;1.37;;;8.20;94.30;;;;;;939319;148;27505;-75
2023/03/27 06:05:03;;;;;;;4.60;1.30;;;8.70;93.80;;;;;;937973;148;27337;-75
2023/03/27 06:07:30;;;;;;;4.30;1.90;;;9.30;92.70;;;;;;936898;148;27346;-75
2023/03/27 06:09:57;;;;;;;2.87;1.50;;;9.90;91.60;;;;;;904001;155;28084;-75
2023/03/27 06:12:23;;;;;;;3.70;1.73;;;10.40;90.60;;;;;;914371;150;27526;-75
2023/03/27 06:14:50;;;;;;;4.53;1.60;;;11.00;89.60;;;;;;926331;149;27421;-75
2023/03/27 06:17:16;;;;;;;6.43;1.37;;;11.40;88.20;;;;;;929555;149;27449;-75
2023/03/27 06:19:43;;;;;;;2.77;1.87;;;11.80;84.30;;;;;;928675;149;27368;-75
2023/03/27 06:22:10;;;;;;;4.63;1.43;;;12.20;82.50;;;;;;928183;149;27371;-75
2023/03/27 06:24:36;;;;;;;3.33;1.40;;;12.60;81.50;;;;;;925669;149;27386;-75
2023/03/27 06:27:03;;;;;;;2.17;1.30;;;12.90;81.20;;;;;;927548;149;27387;-76
2023/03/27 06:29:30;;;;;;;4.15;1.57;;;13.40;80.90;;;;;;927961;149;27384;-75
2023/03/27 06:32:00;;;;;;;5.65;1.42;;;13.80;80.00;;;;;;927165;149;27770;-75
2023/03/27 06:34:25;;;;;;;2.92;1.20;;;14.30;79.30;;;;;;927200;149;27399;-75
2023/03/27 06:36:52;;;;;;;3.70;1.70;;;14.80;78.20;;;;;;926513;149;27332;-76
2023/03/27 06:39:19;;;;;;;3.02;1.50;;;15.20;77.20;;;;;;926674;149;27297;-76
2023/03/27 06:41:46;;;;;;;2.45;1.37;;;15.70;75.90;;;;;;928396;149;27336;-76
2023/03/27 06:44:12;;;;;;;4.62;1.47;;;16.10;74.60;;;;;;928158;149;27347;-76
2023/03/27 06:46:38;;;;;;;2.50;1.30;;;16.50;73.30;;;;;;926210;149;27404;-80
2023/03/27 06:49:05;;;;;;;3.05;1.50;;;16.80;71.90;;;;;;927649;149;27336;-80
2023/03/27 06:51:32;;;;;;;4.22;1.62;;;17.20;70.70;;;;;;925681;149;27428;-80
2023/03/27 06:53:58;;;;;;;2.55;1.25;;;17.40;69.60;;;;;;927010;149;27343;-80
2023/03/27 06:56:25;;;;;;;3.45;1.40;;;17.70;68.70;;;;;;926938;149;27383;-80
2023/03/27 06:58:51;;;;;;;3.12;1.30;;;18.00;67.90;;;;;;928842;149;27358;-80
2023/03/27 07:01:18;;;;;;;2.92;1.15;;;18.30;67.20;;;;;;925945;149;27368;-80
2023/03/27 07:03:44;;;;;;;1.47;1.20;;;18.50;66.40;;;;;;927430;149;27399;-80
2023/03/27 07:06:11;;;;;;;3.62;1.47;;;18.80;65.90;;;;;;927363;149;27380;-80
2023/03/27 07:08:38;;;;;;;3.37;1.35;;;19.10;65.60;;;;;;927558;149;27535;-80
2023/03/27 07:11:04;;;;;;;2.70;1.20;;;19.40;65.20;;;;;;926760;149;27398;-80
2023/03/27 07:13:31;;;;;;;2.83;1.50;;;19.70;64.90;;;;;;936650;149;27394;-80
2023/03/27 07:15:57;;;;;;;1.65;1.10;;;20.10;64.20;;;;;;938169;148;27447;-80
2023/03/27 07:18:24;;;;;;;3.67;1.40;;;20.60;63.60;;;;;;938827;148;27435;-80
2023/03/27 07:20:51;;;;;;;3.85;1.35;;;21.00;62.90;;;;;;938664;148;27475;-80
2023/03/27 07:23:17;;;;;;;2.12;1.00;;;21.40;62.10;;;;;;940228;148;27369;-81
2023/03/27 07:25:44;;;;;;;2.35;1.20;;;21.80;61.10;;;;;;942135;148;27266;-80
2023/03/27 07:28:11;;;;;;;0.88;0.80;;;22.10;59.30;;;;;;940100;148;27375;-80
2023/03/27 07:30:37;;;;;;;2.95;1.35;;;22.30;58.30;;;;;;939685;148;27429;-81
2023/03/27 07:33:04;;;;;;;2.17;1.20;;;22.50;57.70;;;;;;940323;148;27333;-80
2023/03/27 07:35:30;;;;;;;3.60;1.62;;;22.70;57.50;;;;;;940543;148;27404;-83
2023/03/27 07:37:57;;;;;;;3.05;1.20;;;22.80;57.20;;;;;;940629;148;27343;-82
2023/03/27 07:40:25;;;;;;;3.55;1.45;;;23.00;56.90;;;;;;940287;148;27416;-81
2023/03/27 07:42:50;;;;;;;2.58;1.20;;;23.20;56.20;;;;;;937930;148;27371;-82
2023/03/27 07:45:16;;;;;;;4.17;1.50;;;23.40;55.60;;;;;;940044;148;27347;-86
2023/03/27 07:47:43;;;;;;;2.92;1.37;;;23.50;55.20;;;;;;940603;148;27335;-83
2023/03/27 07:50:10;;;;;;;4.22;1.25;;;23.70;55.10;;;;;;940796;148;27716;-81
2023/03/27 07:52:39;;;;;;;3.77;1.90;;;23.90;55.10;;;;;;940170;148;27426;-83
2023/03/27 07:55:03;;;;;;;2.52;1.10;;;24.10;55.00;;;;;;938815;148;27299;-87
2023/03/27 07:57:29;;;;;;;3.77;1.40;;;24.40;54.70;;;;;;919294;151;27346;-86
2023/03/27 07:59:56;;;;;;;2.95;1.45;;;24.70;54.00;;;;;;902968;153;27371;-85
2023/03/27 08:02:23;;;;;;;3.10;1.47;;;24.90;53.10;;;;;;920574;150;27461;-85
2023/03/27 08:04:51;;;;;;;3.90;2.15;;;25.20;53.00;;;;;;920447;150;27764;-86
2023/03/27 08:07:21;;;;;;;4.85;1.90;;;25.30;52.50;;;;;;925793;150;27401;-85
2023/03/27 08:09:44;;;;;;;4.40;1.87;;;25.50;51.80;;;;;;903411;154;27434;-82
2023/03/27 08:12:11;;;;;;;3.12;1.62;;;25.70;51.20;;;;;;912016;154;27386;-82
2023/03/27 08:14:37;;;;;;;4.58;1.62;;;25.80;51.00;;;;;;919051;152;27323;-82
2023/03/27 08:17:03;;;;;;;3.65;1.50;;;26.00;50.00;;;;;;904302;154;27526;-83
2023/03/27 08:19:32;;;;;;;2.50;1.60;;;26.10;50.10;;;;;;919450;152;27483;-82
2023/03/27 08:21:57;;;;;;;1.95;1.00;;;26.20;49.90;;;;;;918701;152;27373;-83
2023/03/27 08:24:23;;;;;;;3.80;1.42;;;26.30;49.30;;;;;;919899;150;27407;-82
2023/03/27 08:26:50;;;;;;;3.83;1.35;;;26.30;48.60;;;;;;924687;151;27368;-83
2023/03/27 08:29:16;;;;;;;3.00;1.22;;;26.20;47.70;;;;;;918053;151;27390;-82
2023/03/27 08:31:43;;;;;;;3.52;1.52;;;26.00;47.00;;;;;;920075;151;27342;-82
2023/03/27 08:34:10;;;;;;;3.12;1.42;;;25.70;46.70;;;;;;921875;151;27343;-83
2023/03/27 08:36:37;;;;;;;3.45;1.02;;;25.30;46.00;;;;;;923486;151;27450;-82
2023/03/27 08:39:03;;;;;;;2.60;1.32;;;24.90;45.90;;;;;;924013;151;27807;-82
2023/03/27 08:41:40;;;;;;;2.08;1.10;;;24.40;45.60;;;;;;921607;151;27493;-83
2023/03/27 08:44:05;;;;;;;2.55;1.37;;;24.00;45.50;;;;;;938504;148;27301;-82
2023/03/27 08:46:37;;;;;;;1.95;1.40;;;23.50;46.20;;;;;;924678;151;27374;-82
2023/03/27 08:49:13;;;;;;;4.37;1.25;;;23.00;45.30;;;;;;923782;151;27405;-82
2023/03/27 08:51:40;;;;;;;1.35;1.00;;;22.70;46.00;;;;;;940545;148;27469;-76
2023/03/27 08:54:15;;;;;;;2.37;1.30;;;22.40;47.30;;;;;;942551;147;27399;-76
2023/03/27 08:56:42;;;;;;;2.42;1.10;;;22.30;48.00;;;;;;937689;148;27308;-76
2023/03/27 08:59:08;;;;;;;4.20;1.27;;;22.20;48.00;;;;;;902445;155;27355;-77
2023/03/27 09:02:03;;;;;;;3.08;1.37;;;21.90;47.10;;;;;;919360;151;27485;-76
2023/03/27 09:04:58;;;;;;;1.00;0.90;;;21.50;46.10;;;;;;903030;155;27410;-76
2023/03/27 09:07:48;;;;;;;2.62;1.05;;;20.90;46.00;;;;;;905935;154;27419;-76
2023/03/27 09:10:14;;;;;;;3.83;1.50;;;20.10;46.10;;;;;;911844;154;27467;-75
2023/03/27 09:12:43;;;;;;;2.80;1.40;;;19.30;46.30;;;;;;901853;155;27394;-75
2023/03/27 09:15:16;;;;;;;5.10;1.07;;;18.60;46.50;;;;;;918438;152;27508;-76
2023/03/27 09:17:45;;;;;;;3.95;1.50;;;18.10;47.50;;;;;;903839;155;27476;-75
2023/03/27 09:20:24;;;;;;;1.57;1.20;;;17.80;48.80;;;;;;905289;154;27377;-76
2023/03/27 09:22:51;;;;;;;3.33;0.98;;;17.80;50.00;;;;;;918401;151;27454;-75
2023/03/27 09:25:19;;;;;;;3.35;1.07;;;18.00;51.30;;;;;;940843;148;27395;-75
2023/03/27 09:27:46;;;;;;;5.10;1.50;;;18.30;51.70;;;;;;926567;151;27415;-75
2023/03/27 09:30:18;;;;;;;2.20;1.45;;;18.80;51.60;;;;;;903950;155;27316;-76
2023/03/27 09:32:42;;;;;;;2.83;1.10;;;19.30;51.40;;;;;;904029;155;27486;-76
2023/03/27 09:35:14;;;;;;;2.55;0.80;;;19.60;50.20;;;;;;903507;155;27461;-75
2023/03/27 09:37:44;;;;;;;3.10;1.45;;;19.80;49.00;;;;;;912254;153;27427;-75
2023/03/27 09:40:22;;;;;;;1.27;0.88;;;20.00;48.20;;;;;;904603;154;27398;-76
2023/03/27 09:42:49;;;;;;;0.90;0.65;;;19.80;47.50;;;;;;911497;154;27442;-76
2023/03/27 09:45:16;;;;;;;2.22;1.17;;;19.70;47.60;;;;;;902913;155;27457;-75
2023/03/27 09:47:42;;;;;;;2.52;0.98;;;19.60;47.30;;;;;;918055;152;27409;-75
2023/03/27 09:50:26;;;;;;;2.83;1.62;;;19.60;46.30;;;;;;924245;151;27403;-75
2023/03/27 09:52:53;;;;;;;4.00;1.60;;;19.50;48.00;;;;;;903264;154;27485;-75
2023/03/27 09:55:26;;;;;;;3.77;1.17;;;19.50;48.30;;;;;;905306;154;27408;-75
2023/03/27 09:57:57;;;;;;;2.87;1.30;;;19.40;47.90;;;;;;924269;151;27464;-75
2023/03/27 10:00:28;;;;;;;3.05;1.65;;;19.20;47.20;;;;;;903061;154;27412;-76
2023/03/27 10:03:04;;;;;;;2.08;1.20;;;19.00;46.80;;;;;;902885;153;27428;-76
2023/03/27 10:05:30;;;;;;;4.58;1.07;;;18.70;47.40;;;;;;903611;153;27402;-75
2023/03/27 10:07:56;;;;;;;4.45;1.60;;;18.40;48.40;;;;;;904486;155;27413;-75
2023/03/27 10:10:24;;;;;;;1.42;0.85;;;18.40;48.80;;;;;;911275;154;27619;-75
2023/03/27 10:12:49;;;;;;;1.95;1.05;;;18.30;48.60;;;;;;901944;155;27338;-75
2023/03/27 10:15:31;;;;;;;5.60;1.45;;;18.30;48.40;;;;;;903706;154;27379;-75
2023/03/27 10:17:58;;;;;;;3.87;1.10;;;18.30;48.30;;;;;;917159;152;27339;-75
2023/03/27 10:20:24;;;;;;;1.95;0.98;;;18.20;48.10;;;;;;920140;152;27493;-75
2023/03/27 10:22:54;;;;;;;2.33;1.07;;;18.10;47.80;;;;;;919071;152;27482;-75
2023/03/27 10:25:20;;;;;;;1.95;0.95;;;17.90;46.60;;;;;;924396;151;27412;-75
2023/03/27 10:27:47;;;;;;;1.70;0.80;;;17.60;46.60;;;;;;923018;151;27433;-75
2023/03/27 10:30:26;;;;;;;1.55;0.88;;;17.30;46.60;;;;;;940404;148;27480;-76
2023/03/27 10:32:52;;;;;;;1.95;0.82;;;16.90;46.60;;;;;;923724;151;27416;-76
2023/03/27 10:35:34;;;;;;;2.70;0.88;;;16.50;47.10;;;;;;904364;154;27394;-75
2023/03/27 10:38:00;;;;;;;1.87;0.93;;;16.20;47.70;;;;;;918548;152;27323;-75
2023/03/27 10:40:27;;;;;;;2.33;1.07;;;15.90;48.50;;;;;;919398;152;27353;-75
2023/03/27 10:42:54;;;;;;;3.60;1.70;;;15.70;48.70;;;;;;904013;155;27504;-75
2023/03/27 10:45:20;;;;;;;5.37;1.30;;;15.60;48.90;;;;;;918459;152;27873;-75
2023/03/27 10:47:50;;;;;;;2.40;1.32;;;15.40;49.10;;;;;;903899;154;27347;-75
2023/03/27 10:50:20;;;;;;;2.77;1.55;;;15.20;49.10;;;;;;903886;155;27366;-75
2023/03/27 10:53:19;;;;;;;2.55;1.20;;;15.00;49.30;;;;;;902616;154;27431;-75
2023/03/27 10:56:00;;;;;;;3.05;0.95;;;14.80;49.40;;;;;;917655;151;27436;-75
2023/03/27 10:58:46;;;;;;;3.53;1.60;;;14.50;49.60;;;;;;923859;151;27437;-75
2023/03/27 11:01:18;;;;;;;3.62;1.10;;;14.30;49.40;;;;;;935023;148;27352;-75
2023/03/27 11:03:51;;;;;;;0.73;0.70;;;14.00;49.00;;;;;;922492;151;27390;-75
2023/03/27 11:06:17;;;;;;;1.00;0.73;;;13.90;49.60;;;;;;924385;151;27380;-75
2023/03/27 11:09:04;;;;;;;2.70;1.00;;;13.70;50.00;;;;;;940302;148;27404;-75
2023/03/27 11:11:46;;;;;;;1.70;0.67;;;13.60;50.30;;;;;;922864;151;27425;-75
2023/03/27 11:14:13;;;;;;;2.13;1.13;;;13.60;50.80;;;;;;905196;154;27382;-75
2023/03/27 11:16:43;;;;;;;0.83;0.80;;;13.50;50.90;;;;;;904168;154;27414;-76
2023/03/27 11:19:11;;;;;;;1.37;1.00;;;13.50;51.00;;;;;;925046;153;27362;-75
2023/03/27 11:21:38;;;;;;;2.83;1.50;;;13.50;50.90;;;;;;924938;151;27457;-75
2023/03/27 11:24:05;;;;;;;1.97;1.13;;;13.40;50.80;;;;;;923728;152;27450;-75
2023/03/27 11:26:34;;;;;;;2.97;1.20;;;13.40;50.70;;;;;;925474;153;27386;-75
2023/03/27 11:29:10;;;;;;;2.08;0.65;;;13.40;50.80;;;;;;921173;151;27539;-75
2023/03/27 11:31:48;;;;;;;1.63;1.07;;;13.40;50.70;;;;;;936259;149;27313;-75
2023/03/27 11:34:27;;;;;;;1.55;0.70;;;13.30;50.80;;;;;;937566;149;27696;-76
2023/03/27 11:36:55;;;;;;;1.77;0.83;;;13.30;51.00;;;;;;933498;148;27470;-75
2023/03/27 11:39:28;;;;;;;1.43;0.80;;;13.30;50.90;;;;;;934746;148;27735;-75
2023/03/27 11:41:54;;;;;;;2.20;1.00;;;13.40;50.60;;;;;;935261;148;27648;-75
2023/03/27 11:44:21;;;;;;;1.13;0.73;;;13.40;49.90;;;;;;931546;148;27479;-75
2023/03/27 11:47:06;;;;;;;2.53;0.90;;;13.40;50.50;;;;;;933426;148;27946;-75
2023/03/27 11:49:32;;;;;;;1.25;0.68;;;13.50;49.60;;;;;;929646;148;27435;-75
2023/03/27 11:52:05;;;;;;;1.10;0.97;;;13.50;49.90;;;;;;934804;148;27387;-75
2023/03/27 11:54:49;;;;;;;2.17;1.27;;;13.50;50.00;;;;;;933558;148;27368;-75
2023/03/27 11:57:22;;;;;;;3.97;0.87;;;13.60;50.10;;;;;;932358;148;27383;-75
2023/03/27 11:59:55;;;;;;;1.35;0.93;;;13.60;50.30;;;;;;931345;148;27405;-75
2023/03/27 12:02:45;;;;;;;2.45;0.90;;;13.70;50.30;;;;;;930788;148;27371;-75
2023/03/27 12:05:13;;;;;;;1.62;0.85;;;13.70;50.50;;;;;;931712;148;27439;-75
2023/03/27 12:08:12;;;;;;;2.83;1.13;;;13.80;50.70;;;;;;933015;148;27817;-75
2023/03/27 12:10:42;;;;;;;1.72;1.30;;;13.90;50.50;;;;;;933756;148;27466;-75
2023/03/27 12:13:30;;;;;;;1.87;1.10;;;13.90;50.20;;;;;;932660;148;27377;-75
2023/03/27 12:16:05;;;;;;;1.00;0.87;;;13.80;50.20;;;;;;933454;148;27381;-75
2023/03/27 12:18:41;;;;;;;1.00;0.93;;;13.70;49.90;;;;;;911618;149;27328;-75
2023/03/27 12:21:08;;;;;;;1.90;0.97;;;13.60;49.80;;;;;;927364;149;27449;-76
2023/03/27 12:24:03;;;;;;;2.67;1.07;;;13.40;49.90;;;;;;921307;149;27424;-75
2023/03/27 12:26:50;;;;;;;1.70;0.97;;;13.20;50.00;;;;;;929017;149;27319;-75
2023/03/27 12:29:40;;;;;;;3.27;1.03;;;13.00;50.20;;;;;;926401;149;27477;-75
2023/03/27 12:32:25;;;;;;;1.43;1.20;;;12.80;50.40;;;;;;914857;149;27842;-75
2023/03/27 12:34:55;;;;;;;1.13;0.80;;;12.70;50.70;;;;;;926529;149;27359;-75
2023/03/27 12:37:23;;;;;;;2.40;0.90;;;12.60;50.60;;;;;;927484;149;27384;-74
2023/03/27 12:39:50;;;;;;;1.80;0.80;;;12.50;50.40;;;;;;927641;149;27378;-75
2023/03/27 12:42:17;;;;;;;1.17;0.70;;;12.40;50.50;;;;;;927296;149;27399;-75
2023/03/27 12:45:14;;;;;;;1.97;0.90;;;12.30;50.50;;;;;;924619;149;27280;-75
2023/03/27 12:47:40;;;;;;;1.20;1.00;;;12.30;50.60;;;;;;916023;149;27327;-75
2023/03/27 12:50:14;;;;;;;1.60;1.07;;;12.20;50.70;;;;;;925297;149;27350;-75
2023/03/27 12:52:40;;;;;;;1.10;1.00;;;12.20;50.80;;;;;;928257;149;27707;-75
2023/03/27 12:55:06;;;;;;;3.27;1.23;;;12.10;50.70;;;;;;925971;149;27380;-75
2023/03/27 12:57:33;;;;;;;1.10;0.90;;;12.10;50.80;;;;;;928021;149;27310;-75
2023/03/27 13:00:05;;;;;;;1.03;0.90;;;12.10;50.80;;;;;;928745;149;27459;-75
2023/03/27 13:02:50;;;;;;;0.90;0.90;;;12.00;50.90;;;;;;925482;149;27356;-75
2023/03/27 13:05:35;;;;;;;1.17;0.87;;;12.00;50.90;;;;;;928961;149;27362;-75